Time;durP1;ratioP1;P1;durP2;ratioP2;P2;SDS_P1;SDS_P2;PMS_P1;PMS_P2;Temp;Humidity;BMP_temperature;BMP_pressure;BME280_temperature;BME280_humidity;BME280_pressure;Samples;Min_cycle;Max_cycle;Signal;HPM_P1;HPM_P2
2023/10/14 00:01:11;;;;;;;8.82;1.92;;;;;;;13.06;100.00;100080.44;5014651;28;20038;-57
2023/10/14 00:03:37;;;;;;;6.60;1.92;;;;;;;12.72;100.00;100016.25;5015598;28;20400;-57
2023/10/14 00:06:06;;;;;;;10.27;1.58;;;;;;;13.12;100.00;100093.34;5015367;28;20040;-54
2023/10/14 00:08:33;;;;;;;6.40;1.88;;;;;;;13.05;100.00;100089.34;5015189;28;20029;-56
2023/10/14 00:11:06;;;;;;;10.13;2.30;;;;;;;13.13;100.00;100089.78;5015270;28;20457;-59
2023/10/14 00:13:40;;;;;;;8.50;2.72;;;;;;;13.00;100.00;100094.84;5014103;28;20073;-56
2023/10/14 00:18:49;;;;;;;14.95;2.67;;;;;;;12.99;100.00;100104.56;5029682;28;20453;-57
2023/10/14 00:21:14;;;;;;;10.52;2.33;;;;;;;12.59;100.00;100061.88;5015320;28;20030;-57
2023/10/14 00:23:39;;;;;;;7.93;2.30;;;;;;;12.50;100.00;100057.91;5014135;28;20033;-56
2023/10/14 00:26:14;;;;;;;9.75;2.70;;;;;;;12.84;100.00;100152.09;5030556;28;20030;-55
2023/10/14 00:28:41;;;;;;;9.32;2.40;;;;;;;12.46;100.00;100093.34;5014978;28;20481;-55
2023/10/14 00:31:07;;;;;;;11.27;2.80;;;;;;;12.41;100.00;100090.06;5015045;28;20038;-57
2023/10/14 00:33:35;;;;;;;9.63;2.72;;;;;;;12.84;100.00;100187.25;5014723;28;20034;-56
2023/10/14 00:36:00;;;;;;;12.95;2.65;;;;;;;12.52;100.00;100129.13;5015040;28;20457;-54
2023/10/14 00:38:27;;;;;;;9.70;2.42;;;;;;;12.83;100.00;100195.25;5029983;28;20037;-58
2023/10/14 00:40:53;;;;;;;13.63;2.35;;;;;;;12.77;100.00;100207.00;5013472;28;20049;-59
2023/10/14 00:43:20;;;;;;;9.55;2.15;;;;;;;12.75;100.00;100216.78;5014677;28;20227;-58
2023/10/14 00:45:47;;;;;;;9.13;2.58;;;;;;;12.76;100.00;100223.75;5014449;28;20084;-55
2023/10/14 00:48:15;;;;;;;11.10;2.88;;;;;;;12.67;100.00;100213.66;5046354;28;20377;-57
2023/10/14 00:50:41;;;;;;;7.13;1.98;;;;;;;12.76;100.00;100233.47;5015156;28;20041;-58
2023/10/14 00:53:07;;;;;;;9.75;2.35;;;;;;;12.34;100.00;100181.94;5049257;28;20084;-56
2023/10/14 00:58:20;;;;;;;9.65;2.22;;;;;;;12.48;100.00;100275.38;5003851;28;20045;-59
2023/10/14 01:00:56;;;;;;;6.57;2.38;;;;;;;12.33;100.00;100242.69;5028592;28;20050;-55
2023/10/14 01:03:23;;;;;;;13.82;2.95;;;;;;;12.22;100.00;100251.13;5026002;28;20380;-55
2023/10/14 01:05:49;;;;;;;10.75;2.35;;;;;;;12.26;100.00;100272.91;5011429;28;20561;-54
2023/10/14 01:08:14;;;;;;;10.93;2.30;;;;;;;12.30;100.00;100287.69;5013492;28;20053;-54
2023/10/14 01:10:41;;;;;;;11.48;2.58;;;;;;;12.21;100.00;100273.16;5043813;28;20477;-57
2023/10/14 01:13:13;;;;;;;12.23;2.60;;;;;;;12.18;100.00;100294.41;5029257;28;20046;-58
2023/10/14 01:15:42;;;;;;;15.13;3.08;;;;;;;12.11;100.00;100300.06;5014170;28;20038;-55
2023/10/14 01:18:08;;;;;;;9.77;2.30;;;;;;;12.06;100.00;100294.97;5028626;28;20038;-54
2023/10/14 01:20:39;;;;;;;10.35;2.47;;;;;;;11.74;100.00;100251.66;5008767;28;20081;-53
2023/10/14 01:23:08;;;;;;;10.88;2.63;;;;;;;12.07;100.00;100320.44;4994671;28;20046;-54
2023/10/14 01:25:46;;;;;;;8.10;2.72;;;;;;;12.00;100.00;100316.38;4992735;28;20109;-55
2023/10/14 01:28:12;;;;;;;10.65;2.70;;;;;;;11.98;100.00;100328.78;5002619;28;20137;-53
2023/10/14 01:31:30;;;;;;;13.57;2.17;;;;;;;11.45;100.00;100277.59;5023661;28;20049;-55
2023/10/14 01:33:57;;;;;;;8.35;2.50;;;;;;;11.97;100.00;100342.03;5040167;28;20038;-55
2023/10/14 01:36:32;;;;;;;16.30;3.33;;;;;;;11.90;100.00;100330.06;5012334;28;20044;-54
2023/10/14 01:38:59;;;;;;;9.57;2.10;;;;;;;11.88;100.00;100343.31;5012687;28;20041;-54
2023/10/14 01:41:25;;;;;;;6.78;1.77;;;;;;;11.41;100.00;100284.81;5013109;28;20034;-55
2023/10/14 01:43:52;;;;;;;8.13;2.20;;;;;;;11.33;100.00;100281.63;5028109;28;20025;-55
2023/10/14 01:46:18;;;;;;;9.07;1.90;;;;;;;11.61;100.00;100345.41;5025811;28;20037;-54
2023/10/14 01:48:44;;;;;;;7.50;1.65;;;;;;;11.29;100.00;100301.97;5023631;28;20045;-54
2023/10/14 01:51:10;;;;;;;10.18;2.20;;;;;;;11.64;100.00;100370.75;5013848;28;20067;-56
2023/10/14 01:53:38;;;;;;;9.02;2.45;;;;;;;11.60;100.00;100372.66;5013110;28;20401;-59
2023/10/14 01:56:03;;;;;;;6.70;1.98;;;;;;;11.62;100.00;100369.94;5027858;28;20436;-57
2023/10/14 01:58:32;;;;;;;12.73;2.38;;;;;;;11.62;100.00;100365.53;5013314;28;20034;-56
2023/10/14 02:01:07;;;;;;;11.27;2.10;;;;;;;11.80;100.00;100385.00;5011972;28;20037;-58
2023/10/14 02:03:34;;;;;;;10.93;1.77;;;;;;;11.65;100.00;100370.69;5013227;28;20352;-55
2023/10/14 02:06:10;;;;;;;10.57;2.05;;;;;;;11.44;100.00;100326.81;5011922;28;20030;-55
2023/10/14 02:08:36;;;;;;;12.10;2.10;;;;;;;11.80;100.00;100409.59;5013117;28;20065;-51
2023/10/14 02:11:02;;;;;;;7.43;2.25;;;;;;;11.80;100.00;100404.31;5012974;28;20453;-55
2023/10/14 02:13:27;;;;;;;9.93;1.90;;;;;;;11.78;100.00;100414.09;5011727;28;20134;-53
2023/10/14 02:15:53;;;;;;;8.80;2.17;;;;;;;11.78;100.00;100415.84;5026576;28;20030;-56
2023/10/14 02:18:21;;;;;;;10.68;2.38;;;;;;;11.34;100.00;100366.81;5012523;28;20049;-55
2023/10/14 02:20:57;;;;;;;12.10;2.75;;;;;;;11.39;100.00;100392.03;5011270;28;21501;-56
2023/10/14 02:23:27;;;;;;;11.63;2.20;;;;;;;11.39;100.00;100378.00;5012047;28;20450;-53
2023/10/14 02:26:00;;;;;;;11.90;1.92;;;;;;;11.40;100.00;100385.84;5010204;28;20025;-52
2023/10/14 02:28:39;;;;;;;9.07;2.15;;;;;;;11.65;100.00;100409.34;5010855;28;20470;-52
2023/10/14 02:31:15;;;;;;;7.80;2.13;;;;;;;11.68;100.00;100415.38;5012113;28;20076;-56
2023/10/14 02:33:45;;;;;;;14.93;2.67;;;;;;;11.58;100.00;100405.28;5011982;28;20037;-54
2023/10/14 02:36:14;;;;;;;10.07;2.15;;;;;;;11.62;100.00;100407.72;5011011;28;20033;-56
2023/10/14 02:38:43;;;;;;;9.45;2.28;;;;;;;11.99;100.00;100464.16;5010772;28;20044;-52
2023/10/14 02:41:09;;;;;;;7.97;2.45;;;;;;;11.77;100.00;100422.91;5012082;28;20413;-54
2023/10/14 02:43:37;;;;;;;13.18;2.50;;;;;;;11.87;100.00;100448.88;5011017;28;20042;-55
2023/10/14 02:46:10;;;;;;;9.02;2.05;;;;;;;11.73;100.00;100426.59;5011413;28;20042;-53
2023/10/14 02:48:54;;;;;;;11.48;1.92;;;;;;;11.95;100.00;100484.53;5026134;28;20048;-54
2023/10/14 02:54:26;;;;;;;8.95;1.65;;;;;;;11.82;100.00;100533.47;5002355;28;20050;-53
2023/10/14 02:56:59;;;;;;;9.23;1.67;;;;;;;11.78;100.00;100524.84;5010517;28;20045;-55
2023/10/14 02:59:58;;;;;;;9.38;2.20;;;;;;;11.51;100.00;100491.69;5011167;28;20064;-54
2023/10/14 03:09:52;;;;;;;6.97;1.80;;;;;;;11.60;100.00;100562.47;5011735;28;20493;-54
2023/10/14 03:12:21;;;;;;;10.07;2.85;;;;;;;11.62;100.00;100579.06;5012170;28;20044;-57
2023/10/14 03:14:52;;;;;;;6.45;1.75;;;;;;;11.20;100.00;100510.53;5010154;28;20041;-52
2023/10/14 03:17:24;;;;;;;11.98;2.75;;;;;;;11.66;100.00;100593.00;5010049;28;20053;-53
2023/10/14 03:19:53;;;;;;;5.75;2.00;;;;;;;11.68;100.00;100597.28;4994440;28;20405;-54
2023/10/14 03:22:27;;;;;;;9.93;2.03;;;;;;;11.78;100.00;100597.81;5008127;28;20449;-53
2023/10/14 03:24:54;;;;;;;6.82;2.25;;;;;;;11.39;100.00;100529.06;5010895;28;20113;-49
2023/10/14 03:27:20;;;;;;;8.90;2.03;;;;;;;11.72;100.00;100595.41;5011357;28;20072;-52
2023/10/14 03:29:54;;;;;;;9.35;2.42;;;;;;;11.26;100.00;100512.91;5012499;28;20614;-53
2023/10/14 03:32:25;;;;;;;7.80;1.73;;;;;;;11.79;100.00;100605.63;5015107;28;20034;-58
2023/10/14 03:34:52;;;;;;;13.88;2.17;;;;;;;11.40;100.00;100549.25;5014409;28;20045;-54
2023/10/14 03:37:25;;;;;;;7.38;2.00;;;;;;;11.66;100.00;100599.13;5015427;28;20042;-52
2023/10/14 03:40:33;;;;;;;10.00;2.30;;;;;;;11.51;100.00;100583.94;5014114;28;20095;-53
2023/10/14 03:42:42;;;;;;;12.07;2.15;;;;;;;11.67;100.00;100607.91;5015637;28;20049;-48
2023/10/14 03:45:20;;;;;;;9.13;2.30;;;;;;;11.38;100.00;100588.00;5015897;28;20070;-54
2023/10/14 03:47:46;;;;;;;9.63;2.38;;;;;;;11.60;100.00;100636.28;5015665;28;20037;-53
2023/10/14 03:50:14;;;;;;;10.27;2.50;;;;;;;11.18;100.00;100572.06;5013269;28;20041;-54
2023/10/14 03:52:40;;;;;;;12.85;2.78;;;;;;;11.53;100.00;100642.69;5014047;28;20048;-52
2023/10/14 03:55:06;;;;;;;6.13;1.60;;;;;;;10.46;100.00;100480.97;5013934;28;20051;-49
2023/10/14 03:57:34;;;;;;;12.38;2.45;;;;;;;11.11;100.00;100587.28;5027720;28;20496;-56
2023/10/14 04:00:09;;;;;;;7.30;1.90;;;;;;;11.12;100.00;100594.25;5015447;28;20472;-52
2023/10/14 04:02:35;;;;;;;10.38;2.63;;;;;;;11.06;100.00;100607.66;5010656;28;20133;-57
2023/10/14 04:05:08;;;;;;;11.30;2.30;;;;;;;10.93;100.00;100582.72;5013780;28;20132;-59
2023/10/14 04:07:33;;;;;;;9.82;1.80;;;;;;;11.47;100.00;100682.47;5012643;28;20070;-51
2023/10/14 04:10:04;;;;;;;9.48;2.15;;;;;;;11.18;100.00;100633.53;5013418;28;20100;-51
2023/10/14 04:12:31;;;;;;;12.05;2.63;;;;;;;10.94;100.00;100588.84;5013481;28;20058;-53
2023/10/14 04:15:23;;;;;;;11.18;2.83;;;;;;;11.44;100.00;100693.13;5015305;28;20034;-51
2023/10/14 04:17:52;;;;;;;6.38;2.42;;;;;;;11.05;100.00;100618.25;5015276;28;20038;-51
2023/10/14 04:20:30;;;;;;;11.63;2.70;;;;;;;11.39;100.00;100681.06;5015206;28;20053;-55
2023/10/14 04:22:55;;;;;;;14.85;2.53;;;;;;;11.42;100.00;100702.88;5013680;28;20042;-53
2023/10/14 04:25:24;;;;;;;10.52;2.67;;;;;;;10.94;100.00;100644.13;5015300;28;20604;-51
2023/10/14 04:30:32;;;;;;;13.85;2.55;;;;;;;11.30;100.00;100721.78;5014970;28;20046;-53
2023/10/14 04:35:31;;;;;;;10.57;2.78;;;;;;;11.34;100.00;100723.41;5012318;28;20042;-55
2023/10/14 04:37:57;;;;;;;12.50;2.70;;;;;;;11.38;100.00;100746.09;5014789;28;20045;-50
2023/10/14 04:51:15;;;;;;;15.13;2.80;;;;;;;10.91;100.00;100697.78;5021195;28;20034;-50
2023/10/14 04:53:43;;;;;;;13.38;2.88;;;;;;;11.27;100.00;100764.94;5015836;28;20041;-53
2023/10/14 04:56:09;;;;;;;12.73;3.13;;;;;;;11.19;100.00;100734.50;5030647;28;20040;-52
2023/10/14 04:58:40;;;;;;;14.07;2.85;;;;;;;11.42;100.00;100773.19;5028711;28;20042;-55
2023/10/14 05:01:17;;;;;;;11.50;2.65;;;;;;;11.40;100.00;100770.63;5017997;28;20045;-54
2023/10/14 05:03:43;;;;;;;9.80;2.63;;;;;;;11.36;100.00;100778.69;5041746;28;20034;-51
2023/10/14 05:08:44;;;;;;;15.23;3.50;;;;;;;10.91;100.00;100723.25;5041253;28;20061;-52
2023/10/14 05:11:13;;;;;;;9.88;2.85;;;;;;;11.15;100.00;100767.13;5026573;28;20033;-53
2023/10/14 05:13:39;;;;;;;10.00;2.95;;;;;;;10.98;100.00;100737.91;5016972;28;20041;-57
2023/10/14 05:16:20;;;;;;;16.00;3.03;;;;;;;10.97;100.00;100742.34;5015512;28;20381;-50
2023/10/14 05:19:00;;;;;;;11.88;2.25;;;;;;;11.26;100.00;100788.72;5022083;28;20048;-56
2023/10/14 05:21:36;;;;;;;18.63;3.50;;;;;;;10.98;100.00;100732.63;5019129;28;20491;-51
2023/10/14 05:24:09;;;;;;;8.77;2.35;;;;;;;11.42;100.00;100805.69;5030389;28;20033;-53
2023/10/14 05:26:46;;;;;;;15.75;2.78;;;;;;;11.31;100.00;100794.66;5012685;28;20038;-55
2023/10/14 05:29:18;;;;;;;15.02;3.10;;;;;;;11.06;100.00;100762.22;5015124;28;20120;-52
2023/10/14 05:31:47;;;;;;;10.40;2.58;;;;;;;10.86;100.00;100744.47;5019483;28;20038;-58
2023/10/14 05:34:24;;;;;;;13.18;3.08;;;;;;;11.07;100.00;100806.94;5019285;28;20027;-55
2023/10/14 05:36:53;;;;;;;10.82;2.75;;;;;;;11.13;100.00;100834.84;5023700;28;20095;-56
2023/10/14 05:39:20;;;;;;;8.05;2.03;;;;;;;11.13;100.00;100838.34;5016945;28;20034;-51
2023/10/14 05:41:48;;;;;;;12.95;2.60;;;;;;;10.98;100.00;100815.16;5027296;28;20030;-54
2023/10/14 05:44:14;;;;;;;5.10;1.70;;;;;;;10.70;100.00;100774.88;5028213;28;20033;-51
2023/10/14 05:46:41;;;;;;;11.30;2.22;;;;;;;11.13;100.00;100850.63;5016137;28;20112;-48
2023/10/14 05:49:07;;;;;;;9.70;2.78;;;;;;;11.14;100.00;100844.47;5029635;28;20040;-51
2023/10/14 05:51:33;;;;;;;10.63;2.70;;;;;;;11.13;100.00;100842.75;5015876;28;20041;-51
2023/10/14 05:53:58;;;;;;;13.18;3.45;;;;;;;11.34;100.00;100864.84;5008096;28;20374;-49
2023/10/14 05:56:27;;;;;;;10.38;2.50;;;;;;;11.11;100.00;100816.47;5021911;28;20140;-54
2023/10/14 05:58:53;;;;;;;12.73;3.15;;;;;;;11.16;100.00;100818.91;5028738;28;20045;-49
2023/10/14 06:01:21;;;;;;;13.27;2.90;;;;;;;11.43;100.00;100867.16;5006254;28;20045;-51
2023/10/14 06:03:47;;;;;;;11.80;2.95;;;;;;;11.01;100.00;100798.38;5037322;28;20393;-48
2023/10/14 06:06:16;;;;;;;12.90;2.78;;;;;;;10.81;100.00;100777.13;5013166;28;20048;-50
2023/10/14 06:08:46;;;;;;;6.72;2.22;;;;;;;11.35;100.00;100882.38;5016527;28;20037;-53
2023/10/14 06:11:12;;;;;;;8.18;2.28;;;;;;;11.21;100.00;100870.53;5021857;28;20040;-54
2023/10/14 06:13:37;;;;;;;11.85;2.88;;;;;;;10.85;100.00;100823.53;5019297;28;20116;-54
2023/10/14 06:16:10;;;;;;;11.02;2.45;;;;;;;10.73;100.00;100807.22;5011853;28;20072;-50
2023/10/14 06:18:39;;;;;;;11.48;2.58;;;;;;;10.83;100.00;100828.00;5043299;28;20073;-57
2023/10/14 06:21:06;;;;;;;5.57;2.65;;;;;;;10.73;100.00;100828.31;5021367;28;20039;-51
2023/10/14 06:23:32;;;;;;;13.80;2.75;;;;;;;11.13;100.00;100901.56;5020012;28;20092;-54
2023/10/14 06:25:58;;;;;;;7.47;2.60;;;;;;;10.79;100.00;100845.66;5018769;28;20034;-56
2023/10/14 06:28:24;;;;;;;9.93;2.42;;;;;;;10.70;100.00;100838.06;5028768;28;20054;-53
2023/10/14 06:30:50;;;;;;;11.05;2.40;;;;;;;11.19;100.00;100929.47;5012573;28;20054;-55
2023/10/14 06:33:15;;;;;;;12.68;2.10;;;;;;;11.19;100.00;100925.06;5015952;28;20341;-52
2023/10/14 06:35:44;;;;;;;7.80;2.30;;;;;;;11.12;100.00;100922.69;5016562;28;20088;-49
2023/10/14 06:38:11;;;;;;;10.00;2.20;;;;;;;10.96;100.00;100892.50;5028695;28;20545;-54
2023/10/14 06:40:37;;;;;;;10.63;2.33;;;;;;;10.87;100.00;100871.72;5011459;28;20033;-51
2023/10/14 06:43:08;;;;;;;8.82;2.67;;;;;;;10.92;100.00;100870.66;5010192;28;20021;-51
2023/10/14 06:45:35;;;;;;;;;;;;;;;11.38;100.00;100949.03;5015055;28;20080;-52
2023/10/14 06:48:03;;;;;;;13.70;2.83;;;;;;;11.16;100.00;100919.03;5024694;28;19925;-53
2023/10/14 06:50:29;;;;;;;9.30;2.25;;;;;;;10.96;100.00;100877.56;5015770;28;20037;-52
2023/10/14 06:53:01;;;;;;;9.43;2.22;;;;;;;11.15;100.00;100902.34;5028091;28;20037;-50
2023/10/14 06:55:39;;;;;;;13.02;2.90;;;;;;;11.63;100.00;100975.41;5011046;28;20507;-49
2023/10/14 06:58:09;;;;;;;14.45;2.78;;;;;;;11.68;100.00;100973.47;5025652;28;20036;-48
2023/10/14 07:00:37;;;;;;;17.45;3.88;;;;;;;11.73;100.00;100961.03;5021221;28;20081;-48
2023/10/14 07:03:06;;;;;;;7.07;2.88;;;;;;;11.60;100.00;100923.66;5026595;28;20503;-51
2023/10/14 07:05:32;;;;;;;14.63;3.20;;;;;;;12.13;100.00;100986.84;5027895;28;20061;-53
2023/10/14 07:08:01;;;;;;;12.63;2.70;;;;;;;12.41;100.00;101009.53;5039864;28;20468;-51
2023/10/14 07:10:32;;;;;;;15.00;3.10;;;;;;;12.27;100.00;100950.25;5013704;28;20038;-49
2023/10/14 07:12:58;;;;;;;17.55;3.95;;;;;;;12.39;100.00;100952.44;5008942;28;20075;-52
2023/10/14 07:15:25;;;;;;;17.23;3.45;;;;;;;12.44;100.00;100953.09;5025081;28;20045;-51
2023/10/14 07:17:50;;;;;;;14.63;3.28;;;;;;;12.46;100.00;100958.34;5026220;28;20068;-54
2023/10/14 07:20:15;;;;;;;15.63;3.33;;;;;;;12.43;100.00;100954.03;5019282;28;20045;-57
2023/10/14 07:22:42;;;;;;;13.32;2.78;;;;;;;12.56;100.00;100989.59;5021141;28;20026;-51
2023/10/14 07:25:11;;;;;;;14.88;3.55;;;;;;;12.71;100.00;101030.41;5026323;28;20542;-51
2023/10/14 07:27:39;;;;;;;12.55;2.75;;;;;;;12.72;100.00;101037.44;5013729;28;20065;-51
2023/10/14 07:30:15;;;;;;;8.80;3.03;;;;;;;12.70;100.00;101045.41;5021526;28;20029;-51
2023/10/14 07:32:44;;;;;;;12.20;2.95;;;;;;;12.27;100.00;100976.63;5018577;28;20148;-54
2023/10/14 07:35:11;;;;;;;13.25;3.92;;;;;;;12.17;100.00;100980.56;5028730;28;20488;-47
2023/10/14 07:37:45;;;;;;;7.70;2.42;;;;;;;12.49;100.00;101058.56;5026141;28;20104;-53
2023/10/14 07:40:22;;;;;;;12.95;3.08;;;;;;;12.40;100.00;101063.22;5015008;28;20496;-49
2023/10/14 07:43:07;;;;;;;13.68;3.03;;;;;;;12.29;100.00;101072.44;5022832;28;20034;-51
2023/10/14 07:45:44;;;;;;;15.18;3.45;;;;;;;11.84;100.00;101007.22;5006884;28;20018;-50
2023/10/14 07:48:13;;;;;;;10.60;2.78;;;;;;;11.95;100.00;101017.38;5018470;28;20038;-50
2023/10/14 07:50:42;;;;;;;13.77;2.83;;;;;;;12.26;100.00;101083.13;5022542;28;20055;-55
2023/10/14 07:53:08;;;;;;;12.65;3.13;;;;;;;12.23;100.00;101062.97;5025218;28;20029;-49
2023/10/14 07:55:47;;;;;;;12.68;3.00;;;;;;;12.33;100.00;101067.03;5025412;28;20030;-52
2023/10/14 07:58:12;;;;;;;9.10;3.30;;;;;;;12.39;100.00;101085.28;5034731;28;20469;-53
2023/10/14 08:00:39;;;;;;;10.02;2.60;;;;;;;12.32;100.00;101056.50;5015918;28;20026;-49
2023/10/14 08:03:06;;;;;;;7.13;2.03;;;;;;;12.48;100.00;101099.06;5024788;28;20030;-50
2023/10/14 08:05:43;;;;;;;11.02;2.80;;;;;;;12.53;100.00;101110.31;5015520;28;20029;-55
2023/10/14 08:08:09;;;;;;;12.63;2.58;;;;;;;12.18;100.00;101032.38;5021477;28;20091;-50
2023/10/14 08:10:45;;;;;;;10.15;2.63;;;;;;;12.29;100.00;101052.19;5011767;28;20030;-53
2023/10/14 08:13:12;;;;;;;14.05;2.85;;;;;;;12.69;100.00;101120.28;4999469;28;20029;-52
2023/10/14 08:15:37;;;;;;;10.27;2.53;;;;;;;12.77;100.00;101128.78;5011203;28;20038;-48
2023/10/14 08:18:06;;;;;;;13.38;2.75;;;;;;;12.51;100.00;101056.72;5026998;28;20051;-49
2023/10/14 08:20:35;;;;;;;12.85;2.78;;;;;;;12.90;100.00;101103.63;5033603;28;20515;-49
2023/10/14 08:23:09;;;;;;;8.23;2.15;;;;;;;13.04;100.00;101132.19;5013922;28;20370;-49
2023/10/14 08:25:34;;;;;;;15.07;3.17;;;;;;;12.73;100.00;101071.69;5028643;28;20112;-48
2023/10/14 08:28:04;;;;;;;8.85;2.60;;;;;;;13.02;100.00;101117.31;5025961;28;20140;-51
2023/10/14 08:30:32;;;;;;;11.27;3.20;;;;;;;13.15;100.00;101134.44;5030568;28;20041;-49
2023/10/14 08:32:58;;;;;;;11.90;2.80;;;;;;;13.09;100.00;101102.97;5014234;28;20374;-52
2023/10/14 08:35:27;;;;;;;17.00;4.10;;;;;;;13.50;100.00;101142.72;5014505;28;20108;-50
2023/10/14 08:37:53;;;;;;;16.63;3.20;;;;;;;13.53;100.00;101108.22;5024802;28;20101;-51
2023/10/14 08:40:25;;;;;;;7.78;3.17;;;;;;;13.46;100.00;101087.38;5020092;28;20161;-52
2023/10/14 08:43:06;;;;;;;12.88;2.80;;;;;;;13.93;100.00;101167.44;5010419;28;20156;-47
2023/10/14 08:45:36;;;;;;;12.48;3.17;;;;;;;13.53;100.00;101115.31;5013267;28;20503;-55
2023/10/14 08:48:03;;;;;;;13.30;2.97;;;;;;;13.89;100.00;101182.59;5026468;28;20124;-53
2023/10/14 08:50:33;;;;;;;10.43;2.55;;;;;;;13.88;100.00;101165.00;5045674;28;20022;-48
2023/10/14 08:53:03;;;;;;;11.48;3.00;;;;;;;13.95;100.00;101161.16;5029109;28;20129;-53
2023/10/14 08:55:28;;;;;;;7.32;2.63;;;;;;;14.12;100.00;101154.31;5023034;28;20036;-48
2023/10/14 08:57:58;;;;;;;12.70;2.90;;;;;;;14.31;100.00;101120.84;5036762;28;20385;-54
2023/10/14 09:00:24;;;;;;;8.63;2.40;;;;;;;14.92;100.00;101195.88;5013734;28;20496;-50
2023/10/14 09:02:51;;;;;;;12.15;2.90;;;;;;;15.30;100.00;101195.00;5030572;28;20050;-49
2023/10/14 09:05:17;;;;;;;10.50;2.80;;;;;;;15.56;100.00;101202.63;5013846;28;20091;-51
2023/10/14 09:07:44;;;;;;;9.07;2.83;;;;;;;15.44;100.00;101189.91;5012865;28;20109;-54
2023/10/14 09:10:10;;;;;;;13.00;2.75;;;;;;;14.71;100.00;101120.00;5017194;28;20029;-55
2023/10/14 09:12:36;;;;;;;12.50;3.10;;;;;;;15.37;100.00;101204.41;5029999;28;20047;-48
2023/10/14 09:15:01;;;;;;;10.60;2.30;;;;;;;15.17;100.00;101200.03;5021883;28;20041;-52
2023/10/14 09:17:28;;;;;;;12.20;2.97;;;;;;;15.42;100.00;101213.00;5022725;28;20038;-50
2023/10/14 09:19:54;;;;;;;8.38;2.45;;;;;;;15.35;100.00;101160.31;5023931;28;20048;-55
2023/10/14 09:22:27;;;;;;;9.32;2.50;;;;;;;15.62;100.00;101174.94;5035229;28;20037;-54
2023/10/14 09:24:55;;;;;;;9.00;2.50;;;;;;;15.99;100.00;101235.97;5029958;28;20033;-51
2023/10/14 09:27:20;;;;;;;9.75;2.55;;;;;;;15.80;100.00;101215.66;5017978;28;20034;-52
2023/10/14 09:29:46;;;;;;;9.40;2.53;;;;;;;16.02;100.00;101238.47;5028941;28;20460;-49
2023/10/14 09:32:12;;;;;;;9.13;2.40;;;;;;;15.46;100.00;101166.84;5033421;28;20049;-49
2023/10/14 09:34:41;;;;;;;7.47;2.20;;;;;;;15.39;100.00;101177.78;5029855;28;20386;-50
2023/10/14 09:37:11;;;;;;;12.60;3.35;;;;;;;15.34;100.00;101251.41;5016037;28;20056;-53
2023/10/14 09:39:44;;;;;;;10.70;3.22;;;;;;;14.58;100.00;101193.84;5025655;28;20493;-49
2023/10/14 09:42:10;;;;;;;12.73;3.10;;;;;;;14.62;100.00;101236.03;5028349;28;20025;-48
2023/10/14 09:44:40;;;;;;;9.90;2.88;;;;;;;14.18;100.00;101197.31;5014196;28;20057;-44
2023/10/14 09:47:09;;;;;;;10.60;2.67;;;;;;;14.21;100.00;101186.59;5029513;28;20029;-48
2023/10/14 09:49:37;;;;;;;12.68;2.50;;;;;;;14.41;100.00;101229.00;5018718;28;20129;-46
2023/10/14 09:52:02;;;;;;;10.80;3.10;;;;;;;14.67;100.00;101267.63;5014826;28;20061;-47
2023/10/14 09:54:30;;;;;;;14.82;3.28;;;;;;;14.51;100.00;101267.41;5018206;28;20064;-46
2023/10/14 09:56:55;;;;;;;10.57;2.95;;;;;;;14.37;100.00;101271.56;5029696;28;20037;-48
2023/10/14 09:59:22;;;;;;;10.57;2.40;;;;;;;14.17;100.00;101263.53;5018337;28;20040;-46
2023/10/14 10:01:47;;;;;;;13.90;2.35;;;;;;;13.85;100.00;101196.00;5013668;28;20069;-46
2023/10/14 10:04:23;;;;;;;12.35;2.83;;;;;;;13.88;100.00;101215.28;5012845;28;20072;-46
2023/10/14 10:07:02;;;;;;;8.60;2.28;;;;;;;14.21;100.00;101281.03;5023748;28;20485;-48
2023/10/14 10:10:10;;;;;;;12.75;3.25;;;;;;;14.40;100.00;101287.31;5032475;28;20033;-51
2023/10/14 10:12:36;;;;;;;8.00;1.58;;;;;;;14.62;100.00;101277.59;5010126;28;20048;-49
2023/10/14 10:15:06;;;;;;;6.53;2.38;;;;;;;14.82;100.00;101292.63;5034369;28;20116;-48
2023/10/14 10:17:39;;;;;;;9.57;2.03;;;;;;;13.88;100.00;101150.91;5026570;28;20114;-47
2023/10/14 10:20:09;;;;;;;11.25;2.90;;;;;;;15.05;100.00;101290.72;5020620;28;20040;-49
2023/10/14 10:22:45;;;;;;;6.18;2.55;;;;;;;14.81;100.00;101246.72;5019178;28;20152;-51
2023/10/14 10:25:14;;;;;;;11.50;2.13;;;;;;;15.33;100.00;101313.34;5017411;28;20081;-47
2023/10/14 10:27:40;;;;;;;5.20;1.88;;;;;;;15.07;100.00;101246.44;5027733;28;20034;-52
2023/10/14 10:30:11;;;;;;;6.38;2.13;;;;;;;15.36;100.00;101257.50;5011502;28;20397;-48
2023/10/14 10:32:38;;;;;;;9.90;2.50;;;;;;;15.68;100.00;101324.13;5024842;28;20033;-48
2023/10/14 10:35:06;;;;;;;8.27;2.15;;;;;;;15.64;100.00;101319.06;5013701;28;20409;-50
2023/10/14 10:37:35;;;;;;;7.32;1.77;;;;;;;16.04;100.00;101332.19;5028959;28;20118;-44
2023/10/14 10:40:05;;;;;;;8.95;2.38;;;;;;;16.02;100.00;101319.94;5034691;28;20129;-45
2023/10/14 10:42:31;;;;;;;9.52;2.00;;;;;;;15.73;100.00;101311.50;5014739;28;20116;-46
2023/10/14 10:44:59;;;;;;;8.23;2.35;;;;;;;15.99;100.00;101334.22;5029457;28;20117;-46
2023/10/14 10:47:29;;;;;;;8.23;2.38;;;;;;;16.05;100.00;101277.28;5028513;28;20041;-50
2023/10/14 10:49:59;;;;;;;5.78;1.77;;;;;;;16.56;100.00;101325.25;5027257;28;20026;-54
2023/10/14 10:52:25;;;;;;;6.68;2.13;;;;;;;16.54;100.00;101271.34;5027322;28;20040;-47
2023/10/14 10:54:53;;;;;;;10.90;2.38;;;;;;;16.36;100.00;101370.50;5024385;28;20116;-50
2023/10/14 10:57:19;;;;;;;6.25;1.85;;;;;;;15.55;100.00;101344.22;5016555;28;20042;-46
2023/10/14 10:59:46;;;;;;;7.40;2.00;;;;;;;15.40;100.00;101351.94;4998068;28;20025;-47
2023/10/14 11:02:13;;;;;;;9.25;1.98;;;;;;;15.29;100.00;101328.56;5018839;28;20026;-50
2023/10/14 11:04:39;;;;;;;8.43;1.95;;;;;;;16.00;100.00;101353.63;5016659;28;20038;-48
2023/10/14 11:07:10;;;;;;;8.80;2.28;;;;;;;16.89;100.00;101354.63;5024625;28;20095;-48
2023/10/14 11:09:44;;;;;;;5.32;1.77;;;;;;;17.16;100.00;101342.56;5029012;28;20038;-45
2023/10/14 11:12:11;;;;;;;8.73;2.15;;;;;;;18.01;100.00;101366.47;5027257;28;20121;-46
2023/10/14 11:14:37;;;;;;;7.05;2.25;;;;;;;17.97;100.00;101308.06;5015232;28;20045;-45
2023/10/14 11:17:04;;;;;;;6.60;1.90;;;;;;;17.97;100.00;101381.75;5027161;28;20033;-45
2023/10/14 11:19:30;;;;;;;7.25;1.98;;;;;;;16.93;100.00;101334.91;5016804;28;20042;-49
2023/10/14 11:21:58;;;;;;;4.80;2.05;;;;;;;17.82;100.00;101361.28;5041195;28;20062;-45
2023/10/14 11:24:24;;;;;;;9.30;2.08;;;;;;;18.77;100.00;101389.69;5037084;28;20041;-45
2023/10/14 11:26:50;;;;;;;9.45;2.20;;;;;;;19.52;100.00;101382.56;5000789;28;20497;-45
2023/10/14 11:29:15;;;;;;;4.28;1.65;;;;;;;20.24;100.00;101341.47;5026738;28;20045;-46
2023/10/14 11:31:44;;;;;;;11.20;2.50;;;;;;;21.11;100.00;101341.94;5025406;28;20376;-46
2023/10/14 11:34:13;;;;;;;6.30;1.45;;;;;;;21.06;100.00;101397.59;5036773;28;20049;-48
2023/10/14 11:36:41;;;;;;;7.43;1.73;;;;;;;20.87;100.00;101346.28;5023858;28;20040;-47
2023/10/14 11:39:13;;;;;;;7.07;2.17;;;;;;;20.45;100.00;101401.63;5014587;28;20026;-47
2023/10/14 11:41:42;;;;;;;6.72;2.13;;;;;;;18.23;100.00;101345.69;4999818;28;20041;-48
2023/10/14 11:44:07;;;;;;;6.55;2.40;;;;;;;17.74;100.00;101377.69;5015920;28;20042;-53
2023/10/14 11:46:39;;;;;;;6.43;2.00;;;;;;;18.19;100.00;101352.13;5014971;28;20108;-49
2023/10/14 11:49:10;;;;;;;5.45;1.70;;;;;;;19.51;100.00;101414.66;5029221;28;20038;-45
2023/10/14 11:51:39;;;;;;;5.90;1.55;;;;;;;19.76;100.00;101420.22;5018368;28;20175;-48
2023/10/14 11:54:06;;;;;;;7.90;1.77;;;;;;;19.09;100.00;101426.91;5034263;28;20112;-51
2023/10/14 11:56:33;;;;;;;7.45;1.92;;;;;;;17.86;100.00;101354.84;5031699;28;20026;-47
2023/10/14 11:59:00;;;;;;;7.45;2.08;;;;;;;17.79;100.00;101361.44;5030676;28;20040;-47